Time;durP1;ratioP1;P1;durP2;ratioP2;P2;SDS_P1;SDS_P2;PMS_P1;PMS_P2;Temp;Humidity;BMP_temperature;BMP_pressure;BME280_temperature;BME280_humidity;BME280_pressure;Samples;Min_cycle;Max_cycle;Signal;HPM_P1;HPM_P2
2021/12/12 00:01:27;;;;;;;1.70;1.58;;;3.70;99.90;;;3.82;86.20;101560.47;5011517;28;20627;-62
2021/12/12 00:04:07;;;;;;;0.85;0.70;;;3.70;99.90;;;3.76;86.48;101556.34;5028410;28;20556;-63
2021/12/12 00:06:35;;;;;;;4.88;2.30;;;3.60;99.90;;;3.72;86.01;101554.75;5011904;28;20694;-63
2021/12/12 00:09:23;;;;;;;2.75;2.55;;;3.60;99.90;;;3.65;86.60;101555.81;5028519;28;20797;-63
2021/12/12 00:11:52;;;;;;;2.78;2.30;;;3.50;99.90;;;3.60;87.07;101559.41;5012022;28;20211;-63
2021/12/12 00:14:30;;;;;;;6.03;3.03;;;3.50;99.90;;;3.53;87.10;101550.16;5012548;28;20222;-62
2021/12/12 00:16:58;;;;;;;1.63;1.45;;;3.40;99.90;;;3.48;87.38;101554.59;5012562;28;20697;-63
2021/12/12 00:19:27;;;;;;;2.00;1.63;;;3.30;99.90;;;3.31;88.52;101559.38;5012416;28;20253;-62
2021/12/12 00:22:01;;;;;;;2.05;1.83;;;3.20;99.90;;;3.31;88.59;101559.38;5011452;28;20218;-63
2021/12/12 00:24:28;;;;;;;2.22;2.03;;;3.20;99.90;;;3.34;88.14;101554.13;5028223;28;20209;-63
2021/12/12 00:26:57;;;;;;;3.90;1.80;;;3.20;99.90;;;3.29;88.56;101574.03;5010826;28;20210;-62
2021/12/12 00:29:26;;;;;;;4.32;1.40;;;3.20;99.90;;;3.27;89.26;101575.81;5012796;28;20223;-63
2021/12/12 00:31:59;;;;;;;0.47;0.47;;;3.10;99.90;;;3.21;89.56;101575.97;5013028;28;20209;-62
2021/12/12 00:34:30;;;;;;;2.05;0.80;;;3.10;99.90;;;3.21;89.22;101575.97;5013403;28;20307;-63
2021/12/12 00:36:57;;;;;;;5.55;2.22;;;3.10;99.90;;;3.22;89.19;101577.66;5012049;28;20206;-62
2021/12/12 00:39:29;;;;;;;1.05;1.02;;;3.10;99.90;;;3.22;88.96;101577.66;4994479;28;20729;-63
2021/12/12 00:42:20;;;;;;;1.52;1.52;;;3.10;99.90;;;3.17;89.38;101580.38;5007275;28;20698;-62
2021/12/12 00:44:54;;;;;;;2.03;1.77;;;3.00;99.90;;;3.13;89.99;101584.75;5011876;28;20638;-62
2021/12/12 00:47:22;;;;;;;1.70;0.82;;;3.00;99.90;;;3.14;89.45;101581.31;5012437;28;20700;-62
2021/12/12 00:50:12;;;;;;;0.95;0.95;;;3.00;99.90;;;3.05;90.63;101571.22;5012350;28;20721;-62
2021/12/12 00:52:44;;;;;;;0.85;0.85;;;2.90;99.90;;;3.01;90.86;101579.94;5009492;28;20228;-62
2021/12/12 00:55:11;;;;;;;1.52;1.05;;;2.80;99.90;;;3.00;90.84;101575.66;5026620;28;20581;-62
2021/12/12 00:57:39;;;;;;;0.60;0.60;;;2.90;99.90;;;3.01;90.49;101577.34;5027171;28;20198;-63
2021/12/12 01:00:12;;;;;;;2.42;1.50;;;2.90;99.90;;;2.93;91.02;101573.28;5011823;28;20746;-63
2021/12/12 01:02:39;;;;;;;2.47;1.38;;;2.80;99.90;;;2.91;91.22;101568.16;5010632;28;20258;-62
2021/12/12 01:05:11;;;;;;;1.10;1.00;;;2.80;99.90;;;2.94;91.21;101562.06;5027692;28;20213;-62
2021/12/12 01:07:42;;;;;;;0.80;0.80;;;2.80;99.90;;;2.92;91.13;101563.84;5013090;28;20256;-63
2021/12/12 01:10:26;;;;;;;1.42;1.20;;;2.80;99.90;;;2.88;91.44;101552.78;5009374;28;20233;-62
2021/12/12 01:12:56;;;;;;;0.55;0.55;;;2.80;99.90;;;2.80;92.21;101551.28;5004600;28;20293;-62
2021/12/12 01:15:38;;;;;;;0.90;0.85;;;2.70;99.90;;;2.82;91.55;101563.25;5012156;28;20222;-62
2021/12/12 01:18:14;;;;;;;2.00;1.80;;;2.70;99.90;;;2.82;92.12;101565.81;4993055;28;20282;-62
2021/12/12 01:20:59;;;;;;;0.40;0.40;;;2.70;99.90;;;2.79;92.60;101562.50;4991768;28;20250;-62
2021/12/12 01:23:43;;;;;;;0.20;0.20;;;2.70;99.90;;;2.75;92.17;101572.00;4992454;28;20204;-63
2021/12/12 01:26:10;;;;;;;1.38;0.70;;;2.70;99.90;;;2.79;92.72;101573.63;4999905;28;20230;-61
2021/12/12 01:28:43;;;;;;;4.43;1.50;;;2.70;99.90;;;2.77;92.36;101572.00;5026933;28;20213;-62
2021/12/12 01:31:15;;;;;;;1.10;0.57;;;2.70;99.90;;;2.83;92.35;101580.38;5011561;28;20585;-63
2021/12/12 01:33:43;;;;;;;2.45;1.40;;;2.70;99.90;;;2.87;92.03;101592.34;5010873;28;20597;-63
2021/12/12 01:36:30;;;;;;;3.53;1.45;;;2.80;99.90;;;2.92;91.76;101595.63;5008672;28;20199;-62
2021/12/12 01:38:57;;;;;;;2.78;1.35;;;2.80;99.90;;;2.94;91.60;101583.53;5009825;28;20657;-63
2021/12/12 01:41:34;;;;;;;12.80;1.15;;;2.90;99.90;;;2.93;91.94;101589.59;5009705;28;20223;-62
2021/12/12 01:44:10;;;;;;;2.28;0.75;;;2.90;99.90;;;2.93;92.17;101587.03;5011746;28;20203;-62
2021/12/12 01:46:45;;;;;;;3.22;0.77;;;2.90;99.90;;;2.97;92.13;101591.22;5008323;28;20573;-62
2021/12/12 01:49:22;;;;;;;0.85;0.85;;;2.90;99.90;;;2.94;92.42;101593.84;5010414;28;20225;-62
2021/12/12 01:51:51;;;;;;;0.85;0.85;;;2.90;99.90;;;2.97;92.20;101593.78;5009297;28;20209;-62
2021/12/12 01:54:26;;;;;;;0.40;0.40;;;2.90;99.90;;;3.00;92.19;101592.88;5012161;28;20207;-62
2021/12/12 01:56:59;;;;;;;1.58;1.48;;;2.90;99.90;;;2.99;92.15;101599.75;5009120;28;20678;-62
2021/12/12 01:59:35;;;;;;;0.32;0.32;;;2.90;99.90;;;2.97;92.34;101595.50;5011310;28;20663;-62
2021/12/12 02:02:24;;;;;;;0.45;0.45;;;2.90;99.90;;;2.98;91.49;101595.47;5010814;28;20228;-62
2021/12/12 02:05:03;;;;;;;2.15;0.77;;;2.90;99.90;;;2.98;92.12;101600.63;5010992;28;20621;-62
2021/12/12 02:07:36;;;;;;;0.82;0.82;;;2.90;99.90;;;3.00;91.50;101598.84;5007354;28;20198;-62
2021/12/12 02:10:12;;;;;;;1.50;1.50;;;2.90;99.90;;;3.06;91.74;101593.56;4998941;28;20295;-63
2021/12/12 02:12:39;;;;;;;0.80;0.80;;;3.00;99.90;;;3.08;91.50;101596.94;5005347;28;20203;-62
2021/12/12 02:15:10;;;;;;;2.03;1.23;;;3.00;99.90;;;3.02;91.14;101591.91;5004720;28;20254;-62
2021/12/12 02:17:43;;;;;;;0.70;0.70;;;3.00;99.90;;;3.03;91.66;101592.78;5008735;28;20206;-63
2021/12/12 02:20:33;;;;;;;6.57;1.83;;;2.90;99.90;;;3.12;91.51;101595.13;5009707;28;20232;-62
2021/12/12 02:36:52;;;;;;;0.93;0.63;;;2.90;99.90;;;3.03;90.54;101580.75;5010890;28;20688;-62
2021/12/12 02:39:22;;;;;;;1.05;1.00;;;2.90;99.90;;;3.04;90.84;101582.44;5024042;28;20218;-63
2021/12/12 02:41:59;;;;;;;1.48;1.00;;;2.90;99.90;;;3.01;90.45;101587.66;5009231;28;20222;-63
2021/12/12 02:44:31;;;;;;;2.40;1.30;;;2.90;99.90;;;2.95;90.51;101589.56;5003908;28;20199;-63
2021/12/12 02:47:09;;;;;;;1.25;0.90;;;2.90;99.90;;;2.98;90.36;101580.00;5009205;28;20575;-62
2021/12/12 02:49:41;;;;;;;0.80;0.80;;;2.90;99.90;;;2.91;91.28;101581.06;5009715;28;20227;-62
2021/12/12 02:52:16;;;;;;;2.35;0.98;;;2.80;99.90;;;2.89;90.69;101589.72;5010489;28;20213;-62
2021/12/12 02:54:44;;;;;;;0.50;0.50;;;2.80;99.90;;;2.87;91.17;101586.34;5009026;28;20203;-62
2021/12/12 02:57:15;;;;;;;1.40;1.40;;;2.80;99.90;;;2.93;91.21;101583.59;5024252;28;20221;-62
2021/12/12 02:59:48;;;;;;;1.48;0.65;;;2.80;99.90;;;2.99;90.32;101591.16;5009339;28;20223;-62
2021/12/12 03:02:24;;;;;;;0.70;0.70;;;2.90;99.90;;;3.03;90.19;101582.47;5009911;28;20608;-62
2021/12/12 03:04:55;;;;;;;1.48;1.40;;;2.90;99.90;;;3.01;90.02;101579.94;5009118;28;20199;-62
2021/12/12 03:07:22;;;;;;;0.60;0.60;;;2.90;99.90;;;2.95;89.95;101579.25;5009795;28;20198;-62
2021/12/12 03:09:55;;;;;;;1.23;0.60;;;2.90;99.90;;;3.00;89.91;101583.38;5010167;28;20226;-62
2021/12/12 03:12:33;;;;;;;0.75;0.75;;;2.90;99.90;;;2.93;90.57;101587.03;5010041;28;20210;-62
2021/12/12 03:15:10;;;;;;;0.40;0.40;;;2.80;99.90;;;2.90;90.46;101587.09;5009230;28;20202;-62
2021/12/12 03:17:39;;;;;;;2.97;0.73;;;2.80;99.90;;;2.89;90.21;101589.72;5010924;28;20260;-62
2021/12/12 03:20:31;;;;;;;1.10;1.10;;;2.80;99.90;;;2.90;90.29;101581.94;5009225;28;20233;-63
2021/12/12 03:23:17;;;;;;;0.98;0.98;;;2.80;99.90;;;2.92;90.62;101587.91;4998164;28;20232;-63
2021/12/12 03:25:50;;;;;;;6.70;1.10;;;2.80;99.90;;;2.94;90.26;101578.38;4993646;28;20286;-63
2021/12/12 03:28:22;;;;;;;1.30;1.08;;;2.80;99.90;;;2.98;90.27;101587.72;5009824;28;20198;-62
2021/12/12 03:30:52;;;;;;;0.63;0.63;;;2.90;99.90;;;2.96;90.08;101584.34;4988996;28;20602;-62
2021/12/12 03:33:20;;;;;;;0.95;0.50;;;2.90;99.90;;;2.99;89.49;101586.88;4990047;28;20211;-62
2021/12/12 03:35:53;;;;;;;0.73;0.65;;;2.90;99.90;;;2.97;89.44;101598.94;5000162;28;20203;-63
2021/12/12 03:38:27;;;;;;;3.22;1.83;;;2.90;99.90;;;2.94;89.86;101587.84;4993497;28;20683;-62
2021/12/12 03:40:59;;;;;;;0.63;0.63;;;2.90;99.90;;;2.98;90.02;101595.47;5012649;28;20636;-62
2021/12/12 03:43:27;;;;;;;0.40;0.40;;;2.90;99.90;;;2.98;89.91;101595.47;4995392;28;20237;-62
2021/12/12 03:45:56;;;;;;;0.63;0.60;;;2.90;99.90;;;3.05;88.57;101591.84;5013893;28;20207;-62
2021/12/12 03:48:31;;;;;;;0.80;0.80;;;3.00;99.90;;;3.03;89.34;101591.06;5012401;28;20701;-62
2021/12/12 03:51:04;;;;;;;0.75;0.75;;;2.90;99.90;;;3.06;89.29;101595.28;5013973;28;20226;-63
2021/12/12 03:53:36;;;;;;;2.50;1.00;;;2.90;99.90;;;3.05;89.20;101601.31;5007945;28;20203;-62
2021/12/12 03:56:06;;;;;;;0.57;0.57;;;3.00;99.90;;;3.05;88.79;101591.84;5006284;28;20301;-62
2021/12/12 03:58:34;;;;;;;1.52;1.00;;;2.90;99.90;;;3.01;89.11;101589.38;5012636;28;20207;-62
2021/12/12 04:01:49;;;;;;;0.95;0.73;;;2.90;99.90;;;3.01;89.40;101579.94;5012670;28;20313;-62
2021/12/12 04:04:27;;;;;;;0.45;0.45;;;2.90;99.90;;;2.99;89.54;101584.28;5011746;28;20289;-62
2021/12/12 04:06:55;;;;;;;0.52;0.52;;;2.90;99.90;;;3.06;89.42;101592.72;5013489;28;20210;-62
2021/12/12 04:09:22;;;;;;;0.82;0.40;;;2.90;99.90;;;3.01;88.87;101586.81;5012189;28;20230;-63
2021/12/12 04:11:59;;;;;;;0.90;0.90;;;2.90;99.90;;;2.98;89.29;101589.50;5010655;28;20214;-63
2021/12/12 04:14:27;;;;;;;1.25;1.25;;;2.90;99.90;;;2.96;89.45;101589.50;5012485;28;20210;-62
2021/12/12 04:17:01;;;;;;;3.38;1.30;;;2.90;99.90;;;3.00;88.89;101596.28;5013159;28;20294;-62
2021/12/12 04:19:29;;;;;;;0.38;0.38;;;2.90;99.90;;;2.98;89.21;101595.47;5013426;28;20333;-62
2021/12/12 04:21:56;;;;;;;0.93;0.93;;;2.90;99.90;;;3.04;88.75;101597.06;5011506;28;20221;-62
2021/12/12 04:24:31;;;;;;;0.95;0.95;;;2.90;99.90;;;3.07;88.85;101589.22;5012228;28;20233;-63
2021/12/12 04:26:59;;;;;;;1.02;1.02;;;3.00;99.90;;;3.05;89.08;101589.28;5012043;28;20680;-62
2021/12/12 04:29:32;;;;;;;1.20;1.10;;;3.00;99.90;;;3.04;89.27;101587.59;5012443;28;20225;-62
2021/12/12 04:32:10;;;;;;;1.50;1.05;;;2.90;99.90;;;2.98;89.26;101595.47;5005818;28;20211;-62
2021/12/12 04:34:44;;;;;;;0.40;0.40;;;3.00;99.90;;;3.01;89.14;101600.56;5000734;28;20709;-63
2021/12/12 04:37:11;;;;;;;0.60;0.60;;;2.90;99.90;;;3.00;89.05;101609.16;5009697;28;20559;-62
2021/12/12 04:39:43;;;;;;;0.50;0.50;;;3.00;99.90;;;3.06;88.42;101609.03;5047581;22;20648;-67
2021/12/12 04:42:29;;;;;;;0.65;0.60;;;3.00;99.90;;;3.14;88.07;101607.09;5046269;28;20230;-67
2021/12/12 04:45:34;;;;;;;0.95;0.95;;;3.10;99.90;;;3.12;87.89;101606.28;5030443;28;20252;-67
2021/12/12 04:51:24;;;;;;;0.60;0.60;;;3.10;99.90;;;3.10;88.57;101607.22;5031314;28;20862;-68
2021/12/12 04:54:02;;;;;;;0.90;0.88;;;3.00;99.90;;;3.09;88.05;101623.56;5030881;28;20225;-67
2021/12/12 04:56:57;;;;;;;1.95;1.35;;;3.00;99.90;;;3.12;88.28;101618.34;5014513;28;20225;-67
2021/12/12 04:59:52;;;;;;;0.30;0.30;;;3.00;99.90;;;3.10;88.41;101626.13;5028342;28;20222;-67
2021/12/12 05:02:57;;;;;;;1.30;0.60;;;3.00;99.90;;;3.13;88.50;101623.44;5025723;28;20225;-67
2021/12/12 05:05:34;;;;;;;2.95;0.90;;;3.00;99.90;;;3.15;88.17;101629.41;5003974;28;20201;-67
2021/12/12 05:08:44;;;;;;;1.13;1.02;;;3.10;99.90;;;3.06;88.30;101629.66;5022088;28;20209;-68
2021/12/12 05:11:21;;;;;;;1.52;0.80;;;3.00;99.90;;;3.12;88.75;101634.66;5012425;28;20229;-65
2021/12/12 05:13:55;;;;;;;0.57;0.57;;;3.00;99.90;;;3.11;88.75;101622.63;5021792;28;20209;-65
2021/12/12 05:16:29;;;;;;;1.67;1.58;;;3.00;99.90;;;3.15;88.48;101629.41;5026139;28;20210;-67
2021/12/12 05:19:06;;;;;;;1.10;1.00;;;3.10;99.90;;;3.10;88.57;101636.44;5030616;28;20201;-65
2021/12/12 05:21:39;;;;;;;1.05;0.90;;;3.00;99.90;;;3.07;89.27;101636.50;5011525;28;20209;-67
2021/12/12 05:24:09;;;;;;;0.90;0.90;;;3.00;99.90;;;3.14;88.98;101643.19;5029101;28;20756;-67
2021/12/12 05:26:50;;;;;;;1.70;1.10;;;3.00;99.90;;;3.04;89.27;101639.16;5030319;28;20212;-67
2021/12/12 05:29:26;;;;;;;1.00;1.00;;;3.10;99.90;;;3.10;90.16;101640.72;5028094;28;20206;-68
2021/12/12 05:31:56;;;;;;;9.10;0.90;;;3.00;99.90;;;3.11;89.53;101648.41;5023001;28;20319;-67
2021/12/12 05:34:33;;;;;;;0.40;0.40;;;3.10;99.90;;;3.10;90.10;101646.75;5029432;28;20197;-67
2021/12/12 05:37:02;;;;;;;2.70;1.45;;;3.10;99.90;;;3.08;90.08;101648.53;5029685;28;20673;-64
2021/12/12 05:39:32;;;;;;;1.13;0.95;;;3.00;99.90;;;3.11;89.99;101648.41;5030960;28;20242;-67
2021/12/12 05:41:59;;;;;;;1.33;1.20;;;3.10;99.90;;;3.19;89.96;101655.97;5029959;28;20210;-67
2021/12/12 05:44:30;;;;;;;1.25;1.17;;;3.10;99.90;;;3.19;89.61;101665.44;5028117;28;20750;-67
2021/12/12 05:47:00;;;;;;;0.77;0.77;;;3.10;99.90;;;3.20;90.04;101657.66;5029134;28;20761;-68
2021/12/12 05:49:29;;;;;;;3.10;0.63;;;3.10;99.90;;;3.22;90.06;101660.19;5028703;28;20714;-66
2021/12/12 05:51:56;;;;;;;0.70;0.70;;;3.20;99.90;;;3.21;89.96;101654.22;5029602;28;20210;-66
2021/12/12 05:54:25;;;;;;;2.20;1.52;;;3.20;99.90;;;3.15;90.56;101649.22;5013559;28;20208;-66
2021/12/12 05:56:54;;;;;;;2.22;1.75;;;3.10;99.90;;;3.17;90.27;101656.91;5030383;28;20661;-67
2021/12/12 05:59:22;;;;;;;1.15;0.88;;;3.10;99.90;;;3.15;90.61;101657.78;5011495;28;20236;-67
2021/12/12 06:01:50;;;;;;;1.83;1.73;;;3.10;99.90;;;3.14;90.25;101669.00;5004258;28;20710;-67
2021/12/12 06:04:19;;;;;;;2.03;1.83;;;3.10;99.90;;;3.24;90.26;101658.44;5029361;28;20292;-66
2021/12/12 06:06:47;;;;;;;0.50;0.50;;;3.20;99.90;;;3.22;90.46;101671.34;5028814;28;20198;-66
2021/12/12 06:09:17;;;;;;;1.00;1.00;;;3.20;99.90;;;3.18;90.94;101662.00;5031950;28;20192;-67
2021/12/12 06:11:49;;;;;;;2.25;2.10;;;3.10;99.90;;;3.22;90.30;101661.03;5028419;28;20198;-67
2021/12/12 06:14:17;;;;;;;1.73;1.63;;;3.10;99.90;;;3.27;89.95;101658.34;5029638;28;20578;-67
2021/12/12 06:16:45;;;;;;;1.48;1.33;;;3.20;99.90;;;3.20;90.09;101664.53;5028455;28;20684;-66
2021/12/12 06:19:18;;;;;;;1.50;1.40;;;3.20;99.90;;;3.17;90.44;101667.22;5009238;28;20294;-66
2021/12/12 06:21:51;;;;;;;1.60;1.50;;;3.10;99.90;;;3.11;90.89;101669.06;5031709;28;20756;-66
2021/12/12 06:24:20;;;;;;;0.60;0.60;;;3.10;99.90;;;3.19;90.39;101673.19;5030721;28;20230;-66
2021/12/12 06:26:49;;;;;;;1.25;1.25;;;3.10;99.90;;;3.20;90.19;101669.69;5028481;28;20194;-65
2021/12/12 06:29:16;;;;;;;1.15;0.82;;;3.10;99.90;;;3.24;90.38;101673.94;5030210;28;20578;-66
2021/12/12 06:31:47;;;;;;;1.50;0.85;;;3.20;99.90;;;3.29;89.49;101670.31;5030180;28;20194;-66
2021/12/12 06:34:14;;;;;;;2.40;1.90;;;3.20;99.90;;;3.21;90.05;101669.69;5029251;28;20704;-66
2021/12/12 06:36:43;;;;;;;1.42;1.33;;;3.20;99.90;;;3.20;89.80;101678.28;5030131;28;20205;-66
2021/12/12 06:39:13;;;;;;;0.82;0.82;;;3.10;99.90;;;3.27;90.18;101679.00;5028792;28;20217;-66
2021/12/12 06:41:41;;;;;;;1.25;1.10;;;3.20;99.90;;;3.23;89.41;101677.38;5030866;28;20202;-67
2021/12/12 06:44:10;;;;;;;0.93;0.80;;;3.20;99.90;;;3.23;89.63;101679.94;5024332;28;20222;-66
2021/12/12 06:46:41;;;;;;;1.77;0.75;;;3.20;99.90;;;3.20;89.76;101680.88;5028143;28;20649;-66
2021/12/12 06:49:14;;;;;;;0.75;0.68;;;3.10;99.90;;;3.12;90.55;101668.19;5030095;28;20202;-66
2021/12/12 06:51:48;;;;;;;2.22;1.58;;;3.10;99.90;;;3.19;90.22;101675.75;5027258;28;20209;-66
2021/12/12 06:54:20;;;;;;;3.85;1.70;;;3.10;99.90;;;3.19;89.63;101671.47;5029865;28;20209;-66
2021/12/12 06:56:52;;;;;;;1.27;1.17;;;3.20;99.90;;;3.10;90.55;101666.53;5029650;28;20202;-65
2021/12/12 06:59:22;;;;;;;2.95;2.13;;;3.10;99.90;;;3.13;90.56;101675.00;5031526;28;20244;-67
2021/12/12 07:01:51;;;;;;;1.52;1.25;;;3.10;99.90;;;3.15;90.29;101680.16;5029627;28;20198;-66
2021/12/12 07:04:19;;;;;;;4.47;3.13;;;3.10;99.90;;;3.18;89.96;101677.47;5029404;28;20232;-67
2021/12/12 07:06:49;;;;;;;1.90;1.42;;;3.10;99.90;;;3.27;89.74;101685.00;5029235;28;20297;-67
2021/12/12 07:09:16;;;;;;;1.58;0.73;;;3.20;99.90;;;3.25;89.17;101689.34;5029170;28;20313;-67
2021/12/12 07:11:45;;;;;;;0.60;0.30;;;3.20;99.90;;;3.34;88.77;101696.00;5031538;28;20200;-67
2021/12/12 07:14:15;;;;;;;0.68;0.68;;;3.30;99.90;;;3.35;88.81;101697.69;5034626;28;20220;-67
2021/12/12 07:16:44;;;;;;;1.17;1.13;;;3.30;99.90;;;3.37;88.37;101690.75;5032428;28;20198;-67
2021/12/12 07:19:16;;;;;;;0.40;0.40;;;3.40;99.90;;;3.36;88.55;101697.66;5034250;28;20631;-66
2021/12/12 07:21:45;;;;;;;1.50;1.50;;;3.30;99.90;;;3.43;88.43;101690.63;5032551;28;20206;-67
2021/12/12 07:24:14;;;;;;;0.50;0.50;;;3.40;99.90;;;3.47;87.72;101687.06;5033223;28;20233;-66
2021/12/12 07:26:41;;;;;;;1.73;1.60;;;3.40;99.90;;;3.52;87.90;101686.06;5030541;28;20224;-65
2021/12/12 07:29:09;;;;;;;0.98;0.85;;;3.50;99.90;;;3.56;87.57;101686.81;5034204;28;20206;-65
2021/12/12 07:31:40;;;;;;;1.10;1.10;;;3.50;99.90;;;3.55;87.17;101686.00;5033048;28;20224;-65
2021/12/12 07:34:14;;;;;;;1.30;1.20;;;3.50;99.90;;;3.57;87.25;101688.53;5034668;28;20213;-65
2021/12/12 07:36:49;;;;;;;2.58;1.65;;;3.50;99.90;;;3.64;87.02;101690.88;5031075;28;20285;-66
2021/12/12 07:39:18;;;;;;;2.50;2.30;;;3.60;99.90;;;3.65;86.44;101691.72;5033254;28;20202;-65
2021/12/12 07:41:47;;;;;;;2.13;2.03;;;3.70;99.90;;;3.64;86.52;101684.91;5032647;28;20202;-65
2021/12/12 07:44:19;;;;;;;1.02;1.02;;;3.60;99.90;;;3.61;86.84;101690.97;5031342;28;20320;-66
2021/12/12 07:46:50;;;;;;;2.58;2.15;;;3.60;99.90;;;3.67;86.56;101695.13;5033460;28;20198;-65
2021/12/12 07:49:30;;;;;;;1.50;0.77;;;3.60;99.90;;;3.70;86.35;101690.75;5030941;28;20205;-65
2021/12/12 07:51:57;;;;;;;2.33;1.67;;;3.70;99.90;;;3.76;85.98;101700.03;5033241;28;20213;-65
2021/12/12 07:54:24;;;;;;;0.40;0.40;;;3.70;99.90;;;3.72;85.53;101698.44;5031381;28;20197;-65
2021/12/12 07:56:52;;;;;;;1.52;1.42;;;3.70;99.90;;;3.70;86.18;101700.22;5032299;28;20213;-65
2021/12/12 07:59:19;;;;;;;1.60;1.15;;;3.70;99.90;;;3.69;85.82;101701.94;5032300;28;20238;-65
2021/12/12 08:01:51;;;;;;;2.45;1.55;;;3.70;99.90;;;3.75;85.69;101700.91;5033895;28;20678;-65
2021/12/12 08:04:24;;;;;;;4.55;1.50;;;3.70;99.90;;;3.77;85.37;101701.72;5032329;28;20705;-63
2021/12/12 08:06:52;;;;;;;0.73;0.73;;;3.80;99.90;;;3.74;85.83;101701.81;5033557;28;20761;-66
2021/12/12 08:09:22;;;;;;;1.25;1.15;;;3.80;99.90;;;3.79;86.25;101710.31;5032504;28;20230;-66
2021/12/12 08:11:50;;;;;;;1.70;1.42;;;3.70;99.90;;;3.82;85.59;101712.78;5032507;28;20206;-65
2021/12/12 08:14:24;;;;;;;0.95;0.95;;;3.80;99.90;;;3.86;85.46;101717.81;5032456;28;20208;-64
2021/12/12 08:16:54;;;;;;;1.70;1.60;;;3.80;99.90;;;3.90;85.59;101722.00;5033514;28;20586;-65
2021/12/12 08:19:25;;;;;;;5.50;1.90;;;3.90;99.90;;;3.96;85.40;101718.44;5032658;28;20557;-66
2021/12/12 08:22:02;;;;;;;1.13;0.88;;;3.90;99.90;;;4.07;84.86;101720.72;5030112;28;20206;-65
2021/12/12 08:24:31;;;;;;;1.13;1.13;;;4.00;99.90;;;4.07;84.37;101720.72;5026248;28;20292;-64
2021/12/12 08:26:58;;;;;;;0.85;0.85;;;4.00;99.90;;;4.04;85.09;101719.06;5029356;28;20198;-65
2021/12/12 08:29:26;;;;;;;0.50;0.43;;;4.00;99.90;;;4.09;84.78;101726.69;5029083;28;20218;-66
2021/12/12 08:31:54;;;;;;;1.40;1.10;;;4.00;99.90;;;4.11;84.31;101733.47;5032036;28;20584;-66
2021/12/12 08:34:22;;;;;;;1.65;1.10;;;4.10;99.90;;;4.14;84.78;101727.38;5031372;28;20206;-65
2021/12/12 08:36:53;;;;;;;2.20;1.70;;;4.10;99.90;;;4.12;84.45;101729.16;5031253;28;20578;-66
2021/12/12 08:39:22;;;;;;;0.73;0.73;;;4.10;99.90;;;4.15;84.29;101718.75;5032574;28;20228;-65
2021/12/12 08:41:51;;;;;;;1.30;1.30;;;4.20;99.90;;;4.21;83.85;101721.16;5030202;28;20210;-66
2021/12/12 08:44:21;;;;;;;3.63;1.48;;;4.20;99.90;;;4.42;82.81;101721.41;5032729;28;20230;-66
2021/12/12 08:46:53;;;;;;;2.15;1.70;;;4.40;99.90;;;4.44;82.86;101722.19;5031593;28;20204;-66
2021/12/12 08:49:28;;;;;;;2.78;1.23;;;4.40;99.90;;;4.55;82.53;101720.16;5032896;28;20222;-66
2021/12/12 08:52:11;;;;;;;6.82;1.73;;;4.60;99.90;;;4.66;82.14;101725.81;5031074;28;20762;-66
2021/12/12 08:54:41;;;;;;;1.88;1.77;;;4.70;99.90;;;4.87;81.27;101726.06;5031070;28;20582;-66
2021/12/12 09:00:34;;;;;;;2.75;1.73;;;5.10;99.90;;;5.01;80.28;101718.72;5022607;28;20225;-66
2021/12/12 09:03:02;;;;;;;1.42;1.27;;;5.20;99.90;;;5.02;80.19;101717.81;5032313;28;20258;-66
2021/12/12 09:05:39;;;;;;;1.25;1.20;;;5.10;99.90;;;4.98;80.56;101706.75;5028199;28;20553;-66
2021/12/12 09:08:46;;;;;;;3.38;1.42;;;5.00;99.90;;;4.95;80.96;101708.56;5010399;28;20625;-66
2021/12/12 09:11:33;;;;;;;1.30;1.17;;;5.00;99.90;;;4.94;81.22;101712.88;5024127;28;20222;-66
2021/12/12 09:14:21;;;;;;;2.55;2.17;;;4.90;99.90;;;5.01;80.87;101726.47;5028626;28;20210;-66
2021/12/12 09:17:01;;;;;;;2.05;1.42;;;5.00;99.90;;;4.89;81.80;101734.63;5026273;28;20206;-66
2021/12/12 09:19:41;;;;;;;6.28;2.33;;;5.00;99.90;;;4.97;80.97;101742.97;5032038;28;20225;-66
2021/12/12 09:22:25;;;;;;;1.25;1.15;;;5.00;99.90;;;4.93;84.12;101734.47;5030538;28;20233;-64
2021/12/12 09:25:38;;;;;;;1.77;1.67;;;4.90;99.90;;;4.87;82.45;101739.00;5017642;28;20233;-65
2021/12/12 09:28:24;;;;;;;1.50;1.40;;;4.90;99.90;;;4.79;82.09;101753.91;5020216;28;20592;-68
2021/12/12 09:30:53;;;;;;;1.00;1.00;;;4.80;99.90;;;4.73;83.20;101749.75;5026084;28;20220;-67
2021/12/12 09:33:57;;;;;;;0.70;0.70;;;4.70;99.90;;;4.77;82.92;101748.75;5008275;28;20296;-67
2021/12/12 09:36:54;;;;;;;1.25;1.13;;;4.70;99.90;;;4.73;83.25;101748.00;5029412;28;20198;-65
2021/12/12 09:39:48;;;;;;;1.13;1.02;;;4.60;99.90;;;4.73;82.78;101749.75;5025703;28;20755;-64
2021/12/12 09:42:59;;;;;;;1.67;1.08;;;4.70;99.90;;;4.78;83.28;101741.84;5029108;28;20576;-65
2021/12/12 09:46:20;;;;;;;2.70;1.45;;;4.70;99.90;;;4.85;83.34;101748.53;5029804;28;20225;-66
2021/12/12 09:52:53;;;;;;;1.42;1.33;;;4.80;99.90;;;4.89;82.87;101745.81;5010539;28;20213;-67
2021/12/12 09:55:50;;;;;;;1.42;1.33;;;4.80;99.90;;;4.76;83.17;101738.47;5027049;28;20208;-67
2021/12/12 09:58:40;;;;;;;1.88;1.30;;;4.80;99.90;;;4.78;83.11;101734.09;5026856;28;20194;-67
2021/12/12 10:01:21;;;;;;;4.93;1.20;;;4.70;99.90;;;4.75;83.48;101741.97;5024807;28;20313;-69
2021/12/12 10:03:48;;;;;;;2.00;1.80;;;4.70;99.90;;;4.84;83.17;101744.25;5028130;28;20217;-68
2021/12/12 10:07:03;;;;;;;4.95;2.97;;;4.80;99.90;;;4.95;82.82;101747.34;5030312;28;20212;-69
2021/12/12 10:09:42;;;;;;;0.77;0.77;;;4.90;99.90;;;5.01;82.60;101736.81;4989560;28;20322;-68
2021/12/12 10:12:22;;;;;;;5.93;2.90;;;4.90;99.90;;;5.02;82.36;101736.78;4987675;28;20290;-68
2021/12/12 10:14:58;;;;;;;1.70;1.27;;;5.00;99.90;;;4.89;83.23;101732.03;5004160;28;20210;-69
2021/12/12 10:17:38;;;;;;;2.92;1.92;;;4.90;99.90;;;5.03;82.17;101728.13;5010626;28;20258;-69
2021/12/12 10:20:15;;;;;;;0.63;0.63;;;5.00;99.90;;;5.09;82.64;101719.31;5025948;28;20232;-69
2021/12/12 10:23:15;;;;;;;1.00;0.90;;;5.00;99.90;;;5.06;82.16;101706.47;5027923;28;20215;-67
2021/12/12 10:25:45;;;;;;;1.40;1.30;;;5.00;99.90;;;4.96;82.66;101705.09;5029106;28;20206;-69
2021/12/12 10:28:43;;;;;;;0.60;0.60;;;5.00;99.90;;;5.06;82.90;101696.13;5025172;28;20209;-69
2021/12/12 10:31:23;;;;;;;2.20;2.00;;;5.00;99.90;;;5.10;82.35;101708.06;5025272;28;20225;-68
2021/12/12 10:34:31;;;;;;;5.88;1.13;;;5.10;99.90;;;5.17;81.91;101714.75;5027789;28;20221;-69
2021/12/12 10:37:26;;;;;;;1.20;1.20;;;5.20;99.90;;;5.27;81.14;101718.72;4996068;28;20571;-68
2021/12/12 10:40:02;;;;;;;0.80;0.80;;;5.30;99.90;;;5.30;81.54;101713.47;5044969;22;20271;-64
2021/12/12 10:42:46;;;;;;;1.40;1.40;;;5.30;99.90;;;5.40;80.53;101707.91;5026557;28;20217;-63
2021/12/12 10:45:29;;;;;;;2.53;2.20;;;5.40;99.90;;;5.48;80.51;101705.06;5026672;28;20233;-64
2021/12/12 10:48:19;;;;;;;1.08;1.08;;;5.40;99.90;;;5.43;80.56;101702.63;5032791;28;20204;-64
2021/12/12 10:51:13;;;;;;;3.42;2.13;;;5.40;99.90;;;5.38;81.08;101691.59;5013235;28;20235;-64
2021/12/12 10:53:55;;;;;;;0.98;0.90;;;5.30;99.90;;;5.40;80.02;101687.22;5010753;28;20206;-64
2021/12/12 10:56:35;;;;;;;0.95;0.95;;;5.40;99.90;;;5.41;80.10;101686.31;5012565;28;20207;-65
2021/12/12 10:59:19;;;;;;;1.70;1.58;;;5.40;99.90;;;5.27;81.32;101688.53;5002847;28;20198;-64
2021/12/12 11:01:55;;;;;;;1.10;1.05;;;5.30;99.90;;;5.34;80.41;101691.75;5008116;28;20215;-64
2021/12/12 11:04:52;;;;;;;1.65;1.55;;;5.20;99.90;;;5.41;80.77;101688.88;5001869;28;20229;-64
2021/12/12 11:07:32;;;;;;;1.80;1.70;;;5.30;99.90;;;5.39;80.48;101684.66;5014102;28;20221;-64
2021/12/12 11:10:17;;;;;;;1.13;1.02;;;5.30;99.90;;;5.37;80.63;101681.28;5012255;28;20226;-64
2021/12/12 11:13:00;;;;;;;1.25;1.25;;;5.30;99.90;;;5.36;80.93;101680.47;5012180;28;20214;-65
2021/12/12 11:15:43;;;;;;;1.42;1.25;;;5.30;99.90;;;5.40;80.29;101666.50;5011603;28;20584;-64
2021/12/12 11:18:15;;;;;;;2.35;2.15;;;5.30;99.90;;;5.37;80.39;101668.34;5011764;28;20782;-64
2021/12/12 11:20:54;;;;;;;1.23;0.90;;;5.30;99.90;;;5.38;80.32;101663.13;5013866;28;20257;-64
2021/12/12 11:23:34;;;;;;;2.85;1.42;;;5.30;99.90;;;5.31;80.39;101676.31;5005556;28;20201;-64
2021/12/12 11:26:56;;;;;;;1.55;1.45;;;5.30;99.90;;;5.53;79.35;101663.50;5001174;28;20250;-63